createdAt,value
2018-05-29T00:00:36.940Z,17.80
2018-05-29T00:01:36.932Z,17.60
2018-05-29T00:02:36.933Z,18.00
2018-05-29T00:03:36.911Z,17.40
2018-05-29T00:04:36.898Z,18.30
2018-05-29T00:05:36.893Z,17.50
2018-05-29T00:06:36.879Z,17.70
2018-05-29T00:07:36.869Z,17.00
2018-05-29T00:08:36.864Z,17.50
2018-05-29T00:09:36.847Z,17.10
2018-05-29T00:10:36.839Z,17.80
2018-05-29T00:11:36.827Z,18.10
2018-05-29T00:12:36.817Z,17.80
2018-05-29T00:13:36.817Z,17.40
2018-05-29T00:14:36.795Z,17.90
2018-05-29T00:15:36.785Z,18.00
2018-05-29T00:16:36.773Z,17.00
2018-05-29T00:17:36.772Z,17.60
2018-05-29T00:18:36.753Z,18.50
2018-05-29T00:19:36.744Z,18.40
2018-05-29T00:20:36.738Z,18.00
2018-05-29T00:21:36.721Z,17.70
2018-05-29T00:22:36.710Z,17.40
2018-05-29T00:23:36.700Z,17.90
2018-05-29T00:24:36.688Z,18.20
2018-05-29T00:25:36.684Z,17.50
2018-05-29T00:26:36.670Z,18.00
2018-05-29T00:27:36.667Z,18.30
2018-05-29T00:28:36.646Z,18.80
2018-05-29T00:29:36.635Z,19.30
2018-05-29T00:30:36.624Z,18.60
2018-05-29T00:31:36.618Z,18.30
2018-05-29T00:32:36.602Z,19.10
2018-05-29T00:33:36.593Z,18.70
2018-05-29T00:34:36.584Z,18.60
2018-05-29T00:35:36.573Z,18.60
2018-05-29T00:36:36.561Z,19.10
2018-05-29T00:37:36.556Z,18.30
2018-05-29T00:38:36.541Z,18.90
2018-05-29T00:39:36.530Z,19.30
2018-05-29T00:40:36.523Z,18.80
2018-05-29T00:41:36.508Z,19.20
2018-05-29T00:42:36.497Z,19.30
2018-05-29T00:43:36.494Z,18.60
2018-05-29T00:44:36.476Z,18.70
2018-05-29T00:45:36.466Z,18.70
2018-05-29T00:46:36.457Z,19.60
2018-05-29T00:47:36.445Z,19.30
2018-05-29T00:48:36.438Z,18.30
2018-05-29T00:49:36.433Z,19.00
2018-05-29T00:50:36.415Z,19.60
2018-05-29T00:51:36.401Z,18.30
2018-05-29T00:52:36.395Z,18.50
2018-05-29T00:53:36.380Z,19.30
2018-05-29T00:54:36.377Z,18.80
2018-05-29T00:55:36.360Z,19.50
2018-05-29T00:56:36.346Z,19.00
2018-05-29T00:57:36.339Z,20.40
2018-05-29T00:58:36.333Z,19.60
2018-05-29T00:59:36.316Z,20.20
2018-05-29T01:00:36.303Z,20.20
2018-05-29T01:01:36.292Z,19.80
2018-05-29T01:02:36.281Z,20.60
2018-05-29T01:03:36.273Z,21.10
2018-05-29T01:04:36.258Z,20.60
2018-05-29T01:05:36.257Z,20.50
2018-05-29T01:06:36.242Z,19.90
2018-05-29T01:07:36.227Z,21.00
2018-05-29T01:08:36.221Z,20.80
2018-05-29T01:09:36.215Z,22.00
2018-05-29T01:10:36.203Z,20.60
2018-05-29T01:11:36.186Z,21.10
2018-05-29T01:12:36.205Z,21.10
2018-05-29T01:13:36.171Z,20.30
2018-05-29T01:14:36.152Z,20.30
2018-05-29T01:15:36.143Z,20.80
2018-05-29T01:16:36.130Z,21.40
2018-05-29T01:17:36.124Z,20.30
2018-05-29T01:18:36.109Z,21.10
2018-05-29T01:19:36.097Z,20.50
2018-05-29T01:20:36.085Z,20.90
2018-05-29T01:21:36.074Z,20.80
2018-05-29T01:22:36.065Z,21.00
2018-05-29T01:23:36.053Z,21.30
2018-05-29T01:24:36.044Z,20.90
2018-05-29T01:25:36.032Z,20.10
2018-05-29T01:26:36.028Z,20.70
2018-05-29T01:27:36.010Z,21.40
2018-05-29T01:28:35.999Z,20.40
2018-05-29T01:29:35.988Z,20.80
2018-05-29T01:30:35.976Z,21.00
2018-05-29T01:31:35.987Z,21.70
2018-05-29T01:32:35.954Z,21.90
2018-05-29T01:33:35.947Z,21.60
2018-05-29T01:34:35.933Z,21.20
2018-05-29T01:35:35.922Z,21.10
2018-05-29T01:36:35.919Z,20.70
2018-05-29T01:37:35.907Z,21.00
2018-05-29T01:38:35.898Z,21.90
2018-05-29T01:39:35.879Z,21.40
2018-05-29T01:40:35.866Z,21.30
2018-05-29T01:41:35.854Z,21.50
2018-05-29T01:42:35.845Z,21.40
2018-05-29T01:43:35.836Z,21.60
2018-05-29T01:44:35.823Z,22.00
2018-05-29T01:45:35.812Z,21.50
2018-05-29T01:46:35.799Z,22.00
2018-05-29T01:47:35.792Z,21.80
2018-05-29T01:48:35.778Z,22.10
2018-05-29T01:49:35.769Z,22.30
2018-05-29T01:50:35.755Z,22.10
2018-05-29T01:51:35.745Z,22.30
2018-05-29T01:52:35.734Z,22.30
2018-05-29T01:53:35.727Z,22.50
2018-05-29T01:54:35.712Z,22.30
2018-05-29T01:55:35.702Z,22.20
2018-05-29T01:56:35.689Z,22.50
2018-05-29T01:57:35.678Z,22.70
2018-05-29T01:58:35.668Z,22.90
2018-05-29T01:59:35.657Z,23.00
2018-05-29T02:00:35.644Z,23.90
2018-05-29T02:01:35.634Z,23.30
2018-05-29T02:02:35.624Z,23.20
2018-05-29T02:03:35.612Z,23.50
2018-05-29T02:04:35.659Z,23.50
2018-05-29T02:05:35.593Z,23.60
2018-05-29T02:06:35.581Z,24.30
2018-05-29T02:07:35.567Z,23.90
2018-05-29T02:08:35.558Z,25.30
2018-05-29T02:09:35.550Z,24.00
2018-05-29T02:10:35.582Z,24.50
2018-05-29T02:11:35.521Z,24.30
2018-05-29T02:12:35.510Z,24.40
2018-05-29T02:13:35.499Z,25.20
2018-05-29T02:14:35.487Z,24.40
2018-05-29T02:15:35.481Z,24.50
2018-05-29T02:16:35.463Z,24.10
2018-05-29T02:17:35.453Z,23.90
2018-05-29T02:18:35.441Z,24.70
2018-05-29T02:19:35.431Z,23.50
2018-05-29T02:20:35.417Z,24.30
2018-05-29T02:21:35.407Z,24.90
2018-05-29T02:22:35.397Z,24.70
2018-05-29T02:23:35.385Z,24.50
2018-05-29T02:24:35.374Z,24.70
2018-05-29T02:25:35.362Z,24.00
2018-05-29T02:26:35.354Z,25.30
2018-05-29T02:27:35.339Z,25.00
2018-05-29T02:28:35.331Z,25.70
2018-05-29T02:29:35.316Z,25.60
2018-05-29T02:30:35.308Z,25.80
2018-05-29T02:31:35.303Z,25.60
2018-05-29T02:32:35.283Z,25.90
2018-05-29T02:33:35.324Z,25.20
2018-05-29T02:34:35.260Z,26.70
2018-05-29T02:35:35.248Z,25.60
2018-05-29T02:36:35.238Z,25.60
2018-05-29T02:37:35.227Z,25.50
2018-05-29T02:38:35.217Z,25.20
2018-05-29T02:39:35.202Z,26.90
2018-05-29T02:40:35.192Z,25.40
2018-05-29T02:41:35.181Z,26.20
2018-05-29T02:42:35.169Z,26.50
2018-05-29T02:43:35.158Z,25.90
2018-05-29T02:44:35.157Z,26.50
2018-05-29T02:45:35.134Z,27.00
2018-05-29T02:46:35.124Z,25.80
2018-05-29T02:47:35.115Z,27.20
2018-05-29T02:48:35.100Z,26.30
2018-05-29T02:49:35.095Z,26.30
2018-05-29T02:50:35.084Z,25.20
2018-05-29T02:51:35.068Z,25.20
2018-05-29T02:52:35.053Z,24.80
2018-05-29T02:53:35.050Z,25.50
2018-05-29T02:54:35.033Z,25.70
2018-05-29T02:55:35.019Z,26.10
2018-05-29T02:56:35.008Z,26.40
2018-05-29T02:57:34.995Z,26.00
2018-05-29T02:58:34.987Z,26.50
2018-05-29T02:59:34.972Z,25.80
2018-05-29T03:00:34.961Z,26.50
2018-05-29T03:01:34.957Z,26.50
2018-05-29T03:02:34.939Z,25.90
2018-05-29T03:03:34.928Z,26.90
2018-05-29T03:04:34.915Z,25.70
2018-05-29T03:05:34.904Z,26.90
2018-05-29T03:06:34.893Z,26.00
2018-05-29T03:07:34.881Z,27.10
2018-05-29T03:08:34.869Z,26.90
2018-05-29T03:09:34.857Z,27.10
2018-05-29T03:10:34.848Z,26.70
2018-05-29T03:11:34.834Z,27.00
2018-05-29T03:12:34.823Z,26.10
2018-05-29T03:13:34.812Z,27.10
2018-05-29T03:14:34.808Z,26.80
2018-05-29T03:15:34.789Z,25.60
2018-05-29T03:16:34.777Z,27.40
2018-05-29T03:17:34.764Z,26.60
2018-05-29T03:18:34.754Z,26.40
2018-05-29T03:19:34.742Z,26.40
2018-05-29T03:20:34.732Z,25.70
2018-05-29T03:21:34.717Z,26.40
2018-05-29T03:22:34.711Z,27.00
2018-05-29T03:23:34.704Z,28.00
2018-05-29T03:24:34.683Z,26.70
2018-05-29T03:25:34.673Z,27.10
2018-05-29T03:26:34.676Z,27.60
2018-05-29T03:27:34.651Z,26.80
2018-05-29T03:28:34.637Z,27.00
2018-05-29T03:29:34.627Z,27.30
2018-05-29T03:30:34.622Z,26.70
2018-05-29T03:31:34.605Z,26.30
2018-05-29T03:32:34.596Z,27.90
2018-05-29T03:33:34.579Z,28.10
2018-05-29T03:34:34.569Z,28.10
2018-05-29T03:35:34.557Z,28.30
2018-05-29T03:36:34.548Z,27.40
2018-05-29T03:37:34.535Z,27.40
2018-05-29T03:38:34.524Z,27.40
2018-05-29T03:39:34.512Z,27.30
2018-05-29T03:40:34.496Z,27.30
2018-05-29T03:41:34.504Z,27.50
2018-05-29T03:42:34.476Z,27.30
2018-05-29T03:43:34.464Z,28.10
2018-05-29T03:44:34.453Z,28.10
2018-05-29T03:45:34.445Z,28.50
2018-05-29T03:46:34.429Z,27.50
2018-05-29T03:47:34.418Z,28.10
2018-05-29T03:48:34.417Z,27.30
2018-05-29T03:49:34.397Z,28.20
2018-05-29T03:50:34.383Z,27.60
2018-05-29T03:51:34.372Z,27.60
2018-05-29T03:52:34.364Z,30.00
2018-05-29T03:53:34.346Z,27.00
2018-05-29T03:54:34.336Z,29.70
2018-05-29T03:55:34.335Z,29.70
2018-05-29T03:56:34.313Z,29.00
2018-05-29T03:57:34.401Z,29.10
2018-05-29T03:58:34.291Z,28.80
2018-05-29T03:59:34.278Z,28.50
2018-05-29T04:00:34.266Z,29.90
2018-05-29T04:01:34.253Z,29.50
2018-05-29T04:03:34.231Z,28.60
2018-05-29T04:04:34.219Z,29.40
2018-05-29T04:05:34.207Z,28.70
2018-05-29T04:06:34.205Z,29.60
2018-05-29T04:07:34.186Z,29.10
2018-05-29T04:08:34.175Z,27.70
2018-05-29T04:09:34.161Z,28.50
2018-05-29T04:10:34.151Z,29.60
2018-05-29T04:11:34.139Z,29.80
2018-05-29T04:12:34.131Z,28.40
2018-05-29T04:13:34.116Z,28.30
2018-05-29T04:14:34.105Z,29.60
2018-05-29T04:15:34.099Z,29.50
2018-05-29T04:16:34.083Z,29.70
2018-05-29T04:17:34.069Z,29.20
2018-05-29T04:18:34.059Z,30.40
2018-05-29T04:19:34.048Z,30.50
2018-05-29T04:20:34.037Z,30.00
2018-05-29T04:21:34.032Z,29.90
2018-05-29T04:22:34.022Z,30.60
2018-05-29T04:23:34.003Z,29.30
2018-05-29T04:24:33.988Z,29.20
2018-05-29T04:25:33.984Z,29.40
2018-05-29T04:26:33.967Z,30.10
2018-05-29T04:28:33.941Z,31.30
2018-05-29T04:29:33.933Z,30.10
2018-05-29T04:30:33.935Z,30.60
2018-05-29T04:31:33.916Z,31.40
2018-05-29T04:32:33.898Z,31.10
2018-05-29T04:33:33.887Z,31.10
2018-05-29T04:34:33.878Z,30.80
2018-05-29T04:35:33.863Z,30.60
2018-05-29T04:36:33.853Z,30.90
2018-05-29T04:37:33.839Z,32.00
2018-05-29T04:38:33.835Z,31.60
2018-05-29T04:39:33.817Z,32.00
2018-05-29T04:40:33.807Z,31.90
2018-05-29T04:41:33.800Z,31.40
2018-05-29T04:42:33.795Z,31.60
2018-05-29T04:43:33.773Z,32.40
2018-05-29T04:44:33.761Z,31.60
2018-05-29T04:45:33.749Z,31.70
2018-05-29T04:46:33.738Z,31.50
2018-05-29T04:47:33.726Z,30.80
2018-05-29T04:48:33.716Z,31.80
2018-05-29T04:49:33.750Z,31.30
2018-05-29T04:50:33.701Z,31.30
2018-05-29T04:51:33.681Z,32.20
2018-05-29T04:52:33.668Z,31.90
2018-05-29T04:53:33.660Z,30.90
2018-05-29T04:54:33.656Z,31.50
2018-05-29T04:55:33.636Z,33.10
2018-05-29T04:56:33.637Z,32.70
2018-05-29T04:57:33.616Z,32.30
2018-05-29T04:58:33.604Z,31.80
2018-05-29T04:59:33.592Z,31.20
2018-05-29T05:00:33.585Z,31.60
2018-05-29T05:01:33.569Z,32.10
2018-05-29T05:02:33.563Z,33.30
2018-05-29T05:03:33.547Z,31.50
2018-05-29T05:04:33.536Z,30.70
2018-05-29T05:05:33.524Z,31.10
2018-05-29T05:06:33.513Z,31.20
2018-05-29T05:07:33.507Z,30.70
2018-05-29T05:08:33.510Z,31.00
2018-05-29T05:09:33.482Z,31.60
2018-05-29T05:10:33.469Z,30.30
2018-05-29T05:11:33.459Z,31.20
2018-05-29T05:12:33.446Z,31.00
2018-05-29T05:13:33.435Z,30.60
2018-05-29T05:14:33.425Z,30.90
2018-05-29T05:15:33.413Z,30.40
2018-05-29T05:16:33.402Z,31.00
2018-05-29T05:17:33.393Z,32.10
2018-05-29T05:18:33.384Z,31.20
2018-05-29T05:19:33.370Z,31.10
2018-05-29T05:20:33.359Z,31.80
2018-05-29T05:21:33.347Z,30.40
2018-05-29T05:22:33.337Z,29.40
2018-05-29T05:23:33.444Z,30.90
2018-05-29T05:24:33.314Z,31.70
2018-05-29T05:25:33.303Z,31.40
2018-05-29T05:26:33.291Z,30.20
2018-05-29T05:27:33.296Z,30.10
2018-05-29T05:28:33.269Z,30.50
2018-05-29T05:29:33.265Z,30.60
2018-05-29T05:30:33.248Z,29.80
2018-05-29T05:31:33.252Z,30.70
2018-05-29T05:32:33.228Z,29.00
2018-05-29T05:33:33.216Z,29.40
2018-05-29T05:34:33.205Z,29.70
2018-05-29T05:35:33.198Z,28.60
2018-05-29T05:36:33.187Z,28.60
2018-05-29T05:37:33.173Z,27.10
2018-05-29T05:38:33.174Z,27.30
2018-05-29T05:39:33.176Z,27.10
2018-05-29T05:40:33.141Z,27.20
2018-05-29T05:41:33.137Z,26.80
2018-05-29T05:42:33.126Z,27.30
2018-05-29T05:43:33.113Z,26.10
2018-05-29T05:44:33.107Z,25.90
2018-05-29T05:45:33.093Z,25.10
2018-05-29T05:46:33.087Z,25.10
2018-05-29T05:47:33.078Z,25.60
2018-05-29T05:48:33.068Z,25.20
2018-05-29T05:49:33.070Z,25.00
2018-05-29T05:50:33.055Z,24.30
2018-05-29T05:51:33.045Z,23.70
2018-05-29T05:52:33.039Z,23.30
2018-05-29T05:53:33.033Z,23.20
2018-05-29T05:54:33.025Z,23.30
2018-05-29T05:55:33.019Z,24.10
2018-05-29T05:56:33.017Z,24.00
2018-05-29T05:57:33.006Z,22.90
2018-05-29T05:58:33.092Z,21.70
2018-05-29T05:59:32.995Z,21.60
2018-05-29T06:00:32.988Z,21.50
2018-05-29T06:01:32.984Z,22.00
2018-05-29T06:02:32.980Z,22.40
2018-05-29T06:03:32.981Z,21.90
2018-05-29T06:04:32.978Z,22.00
2018-05-29T06:05:32.972Z,20.90
2018-05-29T06:06:32.961Z,21.80
2018-05-29T06:07:32.958Z,21.90
2018-05-29T06:08:32.952Z,20.10
2018-05-29T06:09:32.950Z,21.60
2018-05-29T06:10:32.951Z,20.60
2018-05-29T06:11:32.942Z,21.00
2018-05-29T06:12:32.946Z,20.60
2018-05-29T06:13:32.934Z,20.10
2018-05-29T06:14:32.937Z,20.60
2018-05-29T06:15:32.930Z,19.90
2018-05-29T06:16:32.933Z,20.30
2018-05-29T06:17:32.924Z,21.20
2018-05-29T06:18:32.923Z,21.40
2018-05-29T06:19:32.921Z,18.70
2018-05-29T06:20:32.920Z,18.60
2018-05-29T06:21:32.916Z,18.40
2018-05-29T06:22:32.931Z,18.30
2018-05-29T06:23:32.913Z,18.40
2018-05-29T06:24:32.913Z,18.00
2018-05-29T06:25:32.910Z,18.20
2018-05-29T06:26:32.908Z,18.00
2018-05-29T06:27:32.909Z,18.10
2018-05-29T06:28:32.915Z,17.80
2018-05-29T06:29:32.905Z,16.90
2018-05-29T06:30:32.905Z,17.80
2018-05-29T06:31:32.905Z,16.60
2018-05-29T06:32:32.907Z,18.00
2018-05-29T06:33:32.902Z,17.80
2018-05-29T06:34:32.904Z,15.80
2018-05-29T06:35:32.904Z,16.20
2018-05-29T06:36:32.903Z,15.50
2018-05-29T06:37:32.909Z,16.10
2018-05-29T06:38:32.905Z,16.70
2018-05-29T06:39:32.905Z,14.60
2018-05-29T06:40:32.904Z,15.30
2018-05-29T06:41:32.907Z,15.40
2018-05-29T06:42:32.908Z,15.10
2018-05-29T06:43:32.909Z,14.20
2018-05-29T06:44:32.909Z,14.20
2018-05-29T06:45:32.917Z,14.40
2018-05-29T06:46:32.918Z,13.80
2018-05-29T06:47:32.922Z,14.40
2018-05-29T06:48:32.912Z,14.70
2018-05-29T06:49:32.913Z,14.00
2018-05-29T06:50:32.915Z,13.90
2018-05-29T06:51:32.917Z,14.40
2018-05-29T06:52:32.958Z,14.40
2018-05-29T06:53:32.916Z,14.00
2018-05-29T06:54:32.918Z,14.50
2018-05-29T06:55:32.919Z,14.20
2018-05-29T06:56:32.919Z,14.20
2018-05-29T06:57:32.922Z,15.30
2018-05-29T06:58:32.942Z,14.40
2018-05-29T06:59:32.925Z,15.20
2018-05-29T07:00:32.923Z,13.80
2018-05-29T07:01:32.926Z,14.20
2018-05-29T07:02:32.928Z,14.30
2018-05-29T07:03:32.930Z,14.10
2018-05-29T07:04:32.932Z,14.10
2018-05-29T07:05:32.947Z,14.50
2018-05-29T07:06:32.934Z,14.30
2018-05-29T07:07:32.935Z,14.20
2018-05-29T07:08:32.937Z,14.20
2018-05-29T07:09:32.939Z,13.50
2018-05-29T07:10:32.945Z,13.90
2018-05-29T07:11:32.939Z,13.20
2018-05-29T07:12:32.946Z,14.60
2018-05-29T07:13:32.940Z,13.30
2018-05-29T07:14:33.005Z,12.70
2018-05-29T07:15:32.940Z,12.30
2018-05-29T07:16:32.941Z,12.50
2018-05-29T07:17:32.952Z,12.80
2018-05-29T07:18:32.944Z,13.10
2018-05-29T07:19:32.945Z,13.00
2018-05-29T07:20:32.952Z,12.70
2018-05-29T07:21:32.948Z,12.10
2018-05-29T07:22:32.949Z,12.10
2018-05-29T07:23:32.951Z,12.80
2018-05-29T07:24:32.953Z,12.40
2018-05-29T07:25:32.954Z,11.80
2018-05-29T07:26:32.956Z,10.70
2018-05-29T07:27:32.959Z,11.30
2018-05-29T07:28:32.959Z,11.80
2018-05-29T07:29:32.961Z,11.80
2018-05-29T07:30:32.968Z,11.60
2018-05-29T07:31:32.964Z,12.80
2018-05-29T07:32:32.964Z,12.40
2018-05-29T07:33:32.967Z,12.10
2018-05-29T07:34:32.966Z,12.20
2018-05-29T07:35:32.970Z,12.90
2018-05-29T07:36:32.967Z,11.70
2018-05-29T07:37:32.970Z,12.40
2018-05-29T07:38:32.965Z,13.00
2018-05-29T07:39:33.024Z,12.60
2018-05-29T07:40:32.975Z,13.00
2018-05-29T07:41:32.964Z,13.10
2018-05-29T07:42:32.964Z,12.40
2018-05-29T07:43:32.962Z,12.00
2018-05-29T07:44:32.966Z,11.70
2018-05-29T07:45:32.959Z,12.20
2018-05-29T07:46:32.956Z,12.20
2018-05-29T07:47:32.963Z,11.70
2018-05-29T07:48:32.953Z,12.20
2018-05-29T07:49:32.952Z,11.60
2018-05-29T07:50:32.948Z,11.60
2018-05-29T07:51:32.948Z,12.50
2018-05-29T07:52:32.944Z,11.40
2018-05-29T07:53:32.942Z,11.80
2018-05-29T07:54:32.940Z,11.60
2018-05-29T07:55:32.937Z,11.60
2018-05-29T07:56:32.936Z,11.40
2018-05-29T07:57:32.930Z,10.80
2018-05-29T07:58:32.929Z,11.50
2018-05-29T07:59:32.926Z,11.50
2018-05-29T08:00:32.923Z,11.50
2018-05-29T08:01:32.925Z,11.40
2018-05-29T08:02:32.917Z,11.20
2018-05-29T08:03:32.914Z,12.00
2018-05-29T08:04:32.916Z,11.80
2018-05-29T08:05:32.908Z,12.30
2018-05-29T08:06:32.913Z,12.40
2018-05-29T08:07:32.903Z,11.70
2018-05-29T08:08:32.904Z,12.30
2018-05-29T08:09:32.904Z,11.80
2018-05-29T08:10:32.910Z,11.60
2018-05-29T08:11:32.893Z,11.40
2018-05-29T08:12:32.887Z,12.20
2018-05-29T08:13:32.891Z,12.00
2018-05-29T08:14:32.878Z,11.80
2018-05-29T08:15:32.876Z,11.60
2018-05-29T08:16:32.879Z,11.90
2018-05-29T08:17:32.877Z,12.60
2018-05-29T08:18:32.887Z,11.90
2018-05-29T08:19:32.860Z,12.80
2018-05-29T08:20:32.857Z,12.30
2018-05-29T08:21:32.853Z,11.50
2018-05-29T08:22:32.855Z,11.40
2018-05-29T08:23:32.848Z,11.80
2018-05-29T08:24:32.887Z,12.50
2018-05-29T08:25:32.836Z,12.00
2018-05-29T08:26:32.831Z,11.60
2018-05-29T08:27:32.832Z,11.70
2018-05-29T08:28:32.823Z,12.50
2018-05-29T08:29:32.820Z,13.00
2018-05-29T08:30:32.815Z,13.10
2018-05-29T08:31:32.812Z,12.40
2018-05-29T08:32:32.813Z,11.80
2018-05-29T08:33:32.808Z,12.50
2018-05-29T08:34:32.797Z,12.50
2018-05-29T08:36:16.928Z,12.70
2018-05-29T08:37:17.932Z,13.20
2018-05-29T08:38:16.916Z,12.90
2018-05-29T08:40:25.998Z,12.80
2018-05-29T08:41:25.991Z,12.30
2018-05-29T08:42:25.977Z,12.60
2018-05-29T08:43:25.982Z,12.80
2018-05-29T08:44:25.969Z,12.50
2018-05-29T08:45:25.964Z,12.60
2018-05-29T08:46:25.964Z,12.00
2018-05-29T08:47:25.964Z,12.20
2018-05-29T08:48:25.950Z,12.30
2018-05-29T08:49:25.943Z,12.70
2018-05-29T08:50:25.938Z,12.20
2018-05-29T08:51:26.950Z,12.50
2018-05-29T08:52:25.941Z,12.60
2018-05-29T08:53:25.942Z,12.80
2018-05-29T09:00:19.586Z,12.40
2018-05-29T09:01:19.572Z,12.40
2018-05-29T09:02:19.569Z,12.60
2018-05-29T09:03:19.565Z,12.20
2018-05-29T09:04:19.571Z,12.80
2018-05-29T09:05:19.565Z,12.00
2018-05-29T09:06:19.553Z,12.80
2018-05-29T09:07:19.550Z,12.30
2018-05-29T09:08:19.547Z,10.90
2018-05-29T09:09:19.547Z,11.30
2018-05-29T09:10:22.569Z,11.50
2018-05-29T09:11:20.958Z,10.50
2018-05-29T09:14:37.846Z,10.20
2018-05-29T09:15:37.844Z,9.80
2018-05-29T09:16:37.843Z,10.20
2018-05-29T09:17:37.839Z,9.10
2018-05-29T09:18:37.846Z,8.40
2018-05-29T09:19:37.839Z,9.10
2018-05-29T09:20:37.847Z,8.80
2018-05-29T09:21:37.835Z,8.60
2018-05-29T09:22:37.842Z,9.70
2018-05-29T09:23:37.835Z,9.00
2018-05-29T09:24:37.834Z,8.80
2018-05-29T09:25:37.832Z,8.90
2018-05-29T09:26:37.836Z,9.00
2018-05-29T09:27:37.831Z,9.20
2018-05-29T09:28:37.836Z,9.10
2018-05-29T09:29:37.842Z,8.90
2018-05-29T09:30:37.830Z,8.30
2018-05-29T09:31:37.837Z,8.00
2018-05-29T09:32:37.833Z,8.10
2018-05-29T09:33:37.830Z,8.10
2018-05-29T09:34:37.828Z,8.10
2018-05-29T09:35:37.830Z,7.80
2018-05-29T09:37:39.334Z,7.50
2018-05-29T09:38:39.331Z,7.90
2018-05-29T09:39:39.342Z,7.80
2018-05-29T09:40:39.333Z,7.60
2018-05-29T09:41:39.344Z,7.50
2018-05-29T09:42:39.337Z,8.20
2018-05-29T09:43:39.342Z,7.50
2018-05-29T09:44:39.383Z,8.10
2018-05-29T09:45:39.341Z,8.40
2018-05-29T09:46:39.353Z,8.30
2018-05-29T09:47:39.344Z,8.60
2018-05-29T09:48:39.345Z,7.50
2018-05-29T09:49:39.347Z,7.80
2018-05-29T09:50:39.353Z,8.40
2018-05-29T09:51:39.353Z,8.40
2018-05-29T09:52:39.370Z,8.70
2018-05-29T09:53:39.355Z,8.70
2018-05-29T09:54:39.355Z,8.80
2018-05-29T09:55:39.365Z,8.30
2018-05-29T09:56:39.358Z,8.70
2018-05-29T09:57:39.359Z,8.30
2018-05-29T09:58:39.363Z,8.30
2018-05-29T09:59:39.366Z,8.00
2018-05-29T10:00:39.364Z,8.40
2018-05-29T10:01:39.361Z,8.40
2018-05-29T10:02:39.376Z,8.30
2018-05-29T10:03:39.365Z,8.80
2018-05-29T10:04:39.366Z,9.00
2018-05-29T10:05:39.367Z,8.10
2018-05-29T10:06:39.374Z,8.80
2018-05-29T10:07:39.370Z,8.90
2018-05-29T10:08:39.372Z,8.80
2018-05-29T10:09:39.373Z,8.90
2018-05-29T10:10:39.371Z,8.90
2018-05-29T10:11:39.381Z,9.00
2018-05-29T10:12:39.381Z,8.40
2018-05-29T10:13:39.379Z,9.20
2018-05-29T10:14:42.821Z,8.80
2018-05-29T10:15:39.389Z,9.10
2018-05-29T10:16:39.387Z,8.40
2018-05-29T10:17:39.424Z,9.20
2018-05-29T10:18:39.390Z,8.50
2018-05-29T10:19:39.404Z,9.50
2018-05-29T10:20:39.400Z,8.50
2018-05-29T10:21:39.408Z,8.30
2018-05-29T10:22:39.410Z,7.90
2018-05-29T10:23:39.417Z,8.50
2018-05-29T10:24:39.435Z,7.80
2018-05-29T10:25:39.425Z,9.20
2018-05-29T10:26:39.427Z,8.40
2018-05-29T10:27:39.434Z,9.50
2018-05-29T10:28:39.439Z,9.40
2018-05-29T10:29:39.441Z,9.00
2018-05-29T10:30:39.462Z,8.70
2018-05-29T10:31:39.451Z,9.10
2018-05-29T10:32:39.460Z,9.30
2018-05-29T10:33:39.462Z,9.20
2018-05-29T10:34:39.471Z,9.90
2018-05-29T10:35:39.476Z,8.60
2018-05-29T10:36:39.489Z,9.00
2018-05-29T10:37:39.488Z,8.80
2018-05-29T10:38:39.505Z,9.40
2018-05-29T10:39:39.497Z,9.40
2018-05-29T10:40:39.521Z,9.20
2018-05-29T10:41:39.515Z,9.10
2018-05-29T10:42:39.518Z,9.60
2018-05-29T10:43:39.525Z,8.90
2018-05-29T10:44:39.531Z,9.60
2018-05-29T10:45:39.544Z,9.40
2018-05-29T10:46:39.553Z,9.00
2018-05-29T10:47:39.560Z,9.60
2018-05-29T10:48:39.560Z,9.40
2018-05-29T10:49:39.567Z,9.20
2018-05-29T10:50:39.574Z,8.90
2018-05-29T10:51:39.588Z,10.00
2018-05-29T10:52:39.595Z,9.60
2018-05-29T10:53:39.595Z,9.40
2018-05-29T10:54:39.603Z,9.60
2018-05-29T10:55:39.609Z,9.60
2018-05-29T10:56:39.617Z,9.90
2018-05-29T10:57:39.625Z,9.00
2018-05-29T10:58:39.644Z,9.50
2018-05-29T10:59:39.636Z,9.30
2018-05-29T11:00:39.647Z,9.20
2018-05-29T11:01:39.653Z,8.90
2018-05-29T11:02:39.661Z,9.00
2018-05-29T11:03:39.667Z,9.90
2018-05-29T11:04:39.674Z,10.00
2018-05-29T11:05:39.684Z,8.80
2018-05-29T11:06:39.696Z,9.10
2018-05-29T11:07:39.712Z,9.20
2018-05-29T11:08:39.710Z,8.80
2018-05-29T11:09:39.712Z,9.20
2018-05-29T11:10:39.727Z,8.10
2018-05-29T11:11:39.725Z,8.80
2018-05-29T11:12:39.735Z,9.20
2018-05-29T11:13:39.741Z,9.30
2018-05-29T11:14:39.748Z,9.10
2018-05-29T11:15:39.756Z,9.40
2018-05-29T11:16:39.763Z,9.20
2018-05-29T11:17:39.772Z,8.50
2018-05-29T11:18:39.780Z,8.80
2018-05-29T11:19:39.792Z,8.90
2018-05-29T11:20:39.792Z,9.10
2018-05-29T11:21:39.804Z,8.60
2018-05-29T11:22:39.811Z,9.00
2018-05-29T11:23:39.818Z,8.90
2018-05-29T11:24:39.826Z,9.70
2018-05-29T11:25:39.835Z,9.00
2018-05-29T11:26:39.840Z,8.60
2018-05-29T11:27:39.849Z,7.60
2018-05-29T11:28:39.857Z,8.90
2018-05-29T11:29:39.871Z,9.20
2018-05-29T11:30:39.867Z,10.10
2018-05-29T11:31:39.876Z,22.10
2018-05-29T11:32:39.891Z,10.80
2018-05-29T11:33:39.891Z,9.30
2018-05-29T11:34:39.895Z,9.30
2018-05-29T11:35:39.910Z,9.40
2018-05-29T11:36:39.907Z,8.50
2018-05-29T11:37:39.914Z,8.50
2018-05-29T11:38:39.971Z,9.50
2018-05-29T11:39:39.925Z,10.10
2018-05-29T11:40:39.931Z,9.40
2018-05-29T11:41:39.938Z,9.30
2018-05-29T11:42:39.940Z,9.50
2018-05-29T11:43:39.948Z,10.10
2018-05-29T11:44:39.952Z,9.10
2018-05-29T11:45:39.956Z,9.60
2018-05-29T11:46:39.962Z,9.40
2018-05-29T11:47:39.969Z,9.70
2018-05-29T11:48:40.033Z,10.10
2018-05-29T11:49:39.970Z,10.50
2018-05-29T11:50:39.983Z,10.70
2018-05-29T11:51:39.987Z,10.20
2018-05-29T11:52:39.978Z,10.30
2018-05-29T11:53:39.986Z,10.20
2018-05-29T11:54:39.981Z,10.30
2018-05-29T11:55:39.991Z,10.40
2018-05-29T11:56:39.984Z,10.00
2018-05-29T11:57:39.996Z,10.50
2018-05-29T11:58:39.995Z,10.50
2018-05-29T11:59:39.987Z,10.20
2018-05-29T12:00:40.091Z,10.20
2018-05-29T12:01:40.003Z,10.40
2018-05-29T12:02:39.992Z,10.80
2018-05-29T12:03:39.994Z,10.50
2018-05-29T12:04:39.987Z,9.50
2018-05-29T12:05:39.987Z,10.60
2018-05-29T12:06:39.989Z,10.90
2018-05-29T12:07:40.043Z,10.60
2018-05-29T12:08:39.985Z,11.70
2018-05-29T12:09:39.984Z,11.40
2018-05-29T12:10:39.983Z,11.20
2018-05-29T12:11:39.980Z,10.40
2018-05-29T12:12:39.989Z,10.10
2018-05-29T12:13:39.979Z,10.50
2018-05-29T12:14:39.976Z,10.80
2018-05-29T12:15:39.974Z,11.00
2018-05-29T12:16:39.983Z,10.60
2018-05-29T12:17:39.973Z,11.30
2018-05-29T12:18:39.969Z,11.50
2018-05-29T12:19:39.967Z,11.10
2018-05-29T12:20:39.966Z,11.60
2018-05-29T12:21:39.967Z,11.70
2018-05-29T12:22:39.964Z,11.40
2018-05-29T12:23:39.960Z,11.70
2018-05-29T12:24:39.964Z,11.20
2018-05-29T12:25:39.965Z,11.70
2018-05-29T12:26:39.955Z,12.00
2018-05-29T12:27:39.952Z,11.60
2018-05-29T12:28:39.950Z,11.30
2018-05-29T12:29:39.945Z,11.30
2018-05-29T12:30:39.943Z,11.00
2018-05-29T12:31:39.941Z,11.90
2018-05-29T12:32:39.939Z,11.80
2018-05-29T12:33:39.936Z,12.70
2018-05-29T12:34:39.931Z,12.20
2018-05-29T12:35:39.939Z,12.30
2018-05-29T12:36:39.935Z,12.10
2018-05-29T12:37:39.923Z,12.50
2018-05-29T12:38:39.939Z,11.90
2018-05-29T12:39:39.918Z,12.90
2018-05-29T12:40:39.915Z,11.90
2018-05-29T12:41:39.915Z,12.20
2018-05-29T12:42:39.907Z,12.00
2018-05-29T12:43:39.906Z,13.00
2018-05-29T12:44:39.902Z,11.40
2018-05-29T12:45:39.911Z,11.90
2018-05-29T12:46:39.896Z,11.70
2018-05-29T12:47:39.900Z,12.80
2018-05-29T12:48:39.894Z,11.70
2018-05-29T12:49:39.887Z,12.10
2018-05-29T12:50:39.894Z,12.20
2018-05-29T12:51:39.882Z,11.70
2018-05-29T12:52:39.879Z,12.30
2018-05-29T12:53:39.877Z,12.40
2018-05-29T12:54:39.872Z,11.60
2018-05-29T12:55:39.867Z,12.00
2018-05-29T12:56:39.870Z,11.30
2018-05-29T12:57:39.862Z,11.80
2018-05-29T12:58:39.905Z,11.70
2018-05-29T12:59:39.863Z,11.00
2018-05-29T13:00:39.859Z,11.90
2018-05-29T13:01:39.851Z,11.80
2018-05-29T13:02:39.845Z,11.20
2018-05-29T13:03:39.843Z,11.70
2018-05-29T13:04:39.854Z,11.50
2018-05-29T13:05:39.857Z,11.00
2018-05-29T13:06:39.854Z,11.90
2018-05-29T13:07:39.828Z,11.80
2018-05-29T13:08:39.826Z,11.90
2018-05-29T13:09:39.821Z,11.20
2018-05-29T13:10:39.817Z,11.70